Fibre, Michigan
Current Conditions -  °F | °C
As of 1:55 PM on Friday 24 Oct 2014 (Local Time) from KCIU Reporting Station
Overcast Overcast  
Wind Chill: 52°   Ceiling: 800
Heat Index: 52°   Visibility: 10mi
Dew Point: 50°   Wind: 5mph
Humidity: 94%   Direction: 240°WSW
Pressure: 29.94"   Gusts: NA
Location:  46.1892°N, 84.6083°W
Report Text: KCIU 241755Z AUTO 24004KT 10SM BKN008 OVC013 11/10 A2994 RMK AO1 10110 20070 57017
Loading
Personal Weather Stations






























Interactive Weather Map
Tropical Storm Tracking
New forecast layout! Learn more

10-Day Weather Forecast

Advertisements
Track Severe Weather on mobile